map of KOK home
Great Circle Mapper logo
KOK - Airport
Location
City:  Kokkola/Pietarsaari, Finland
Name:Kruunupyy
ICAO / IATA:EFKK / KOK

Details
Type:Airport (Aerodrome, Airfield)
Latitude:6343'16"N (63.721172)
Longitude:2308'35"E (23.143131)
Datum:WGS 1984
Elevation:84 ft (26 m)
Runways:2
Longest:8202 × 197 ft (2500 × 60 m), paved

Time
Time Zone:UTC+2 (DST+3)
Local Time:

Weather
METAR:EFKK 250720Z AUTO 00000KT CAVOK 27/09 Q1021

Related Locations
Nearby:
Farthest:NZWD: 11192 mi / 18012 km
McMurdo Station [Williams Field], Ross Island, AQ

Find:

   beyond  
but within

Other Information
Maps:
NOTAMs:
Links:
Sources:

  
flag of Finland   

Sectional Chart

Flight Planning
at skyvector.com

Satellite Image

Google Maps Satellite View

 

Copyright © 2004-2014 Karl L. Swartz. All rights reserved.
The Great Circle Mapper name and logo are trademarks of the Great Circle Mapper.
All other trademarks mentioned herein belong to their respective owners.
Please see credits for attibutions and further copyright information.

  Follow gcmap on Facebook Follow gcmap on Twitter

hCard Microformat

Geo Microformat